Rechercher aéroport 
image banner adimage banner adimage banner ad
image banner ad

11PA - Sherrie John Manor Heliport

Situé à Mechanicsburg, United States

ICAO - 11PA, IATA -

Données fournies par Airmate  

Information générale

Coordonnées: N40°11'31" W75°18'48"
Élévation : 415 feet MSL.
 
Voir autres Aéroports à Pennsylvania

Données opérationnelles

Special qualification required
Heure actuelle UTC:
Heure actuelle locale:
Météo à : KLOM - Wings Field ( 7 km )
METAR: KLOM 150535Z AUTO 23003KT 10SM -RA SCT044 BKN050 OVC065 18/17 A2982 RMK AO2 T01780170
Voir NOTAMs / SUP AIP / TFR affectant cet aéroport [VIEW]
Fréquences de communication: [VIEW]

Pistes:

Coordonnées de l'aéroport

Adresse: Mechanicsburg United States

Vue satellite de 11PA